sensor_id;sensor_type;location;lat;lon;timestamp;temperature;humidity
55634;DHT22;41504;53.162;6.788;2023-05-03T00:00:04;7.70;75.10
55634;DHT22;41504;53.162;6.788;2023-05-03T00:02:35;7.70;75.40
55634;DHT22;41504;53.162;6.788;2023-05-03T00:05:05;7.70;75.40
55634;DHT22;41504;53.162;6.788;2023-05-03T00:07:34;7.70;75.60
55634;DHT22;41504;53.162;6.788;2023-05-03T00:10:00;7.70;75.80
55634;DHT22;41504;53.162;6.788;2023-05-03T00:12:25;7.70;76.10
55634;DHT22;41504;53.162;6.788;2023-05-03T00:14:51;7.60;76.30
55634;DHT22;41504;53.162;6.788;2023-05-03T00:17:17;7.60;76.60
55634;DHT22;41504;53.162;6.788;2023-05-03T00:19:43;7.60;77.20
55634;DHT22;41504;53.162;6.788;2023-05-03T00:22:09;7.60;76.90
55634;DHT22;41504;53.162;6.788;2023-05-03T00:24:37;7.60;77.10
55634;DHT22;41504;53.162;6.788;2023-05-03T00:27:06;7.60;77.40
55634;DHT22;41504;53.162;6.788;2023-05-03T00:29:32;7.60;77.40
55634;DHT22;41504;53.162;6.788;2023-05-03T00:31:58;7.70;77.30
55634;DHT22;41504;53.162;6.788;2023-05-03T00:34:24;7.70;77.80
55634;DHT22;41504;53.162;6.788;2023-05-03T00:36:50;7.70;77.30
55634;DHT22;41504;53.162;6.788;2023-05-03T00:39:16;7.90;77.70
55634;DHT22;41504;53.162;6.788;2023-05-03T00:41:42;7.70;77.50
55634;DHT22;41504;53.162;6.788;2023-05-03T00:44:07;7.70;77.50
55634;DHT22;41504;53.162;6.788;2023-05-03T00:46:36;7.70;77.50
55634;DHT22;41504;53.162;6.788;2023-05-03T00:49:02;7.70;77.90
55634;DHT22;41504;53.162;6.788;2023-05-03T00:51:28;7.70;77.70
55634;DHT22;41504;53.162;6.788;2023-05-03T00:53:54;7.70;78.00
55634;DHT22;41504;53.162;6.788;2023-05-03T00:56:20;7.80;78.10
55634;DHT22;41504;53.162;6.788;2023-05-03T00:58:49;7.80;78.00
55634;DHT22;41504;53.162;6.788;2023-05-03T01:01:15;7.80;77.90
55634;DHT22;41504;53.162;6.788;2023-05-03T01:03:42;7.80;77.90
55634;DHT22;41504;53.162;6.788;2023-05-03T01:09:27;7.90;78.00
55634;DHT22;41504;53.162;6.788;2023-05-03T01:17:22;7.90;77.40
55634;DHT22;41504;53.162;6.788;2023-05-03T01:19:52;7.90;77.30
55634;DHT22;41504;53.162;6.788;2023-05-03T01:22:41;7.80;77.40
55634;DHT22;41504;53.162;6.788;2023-05-03T01:25:10;7.80;77.30
55634;DHT22;41504;53.162;6.788;2023-05-03T01:27:37;7.80;77.20
55634;DHT22;41504;53.162;6.788;2023-05-03T01:30:08;7.80;77.00
55634;DHT22;41504;53.162;6.788;2023-05-03T01:38:15;7.80;76.30
55634;DHT22;41504;53.162;6.788;2023-05-03T01:40:50;7.80;76.40
55634;DHT22;41504;53.162;6.788;2023-05-03T01:43:17;7.70;76.40
55634;DHT22;41504;53.162;6.788;2023-05-03T01:45:44;7.70;76.50
55634;DHT22;41504;53.162;6.788;2023-05-03T01:48:15;7.70;76.50
55634;DHT22;41504;53.162;6.788;2023-05-03T01:50:41;7.70;76.50
55634;DHT22;41504;53.162;6.788;2023-05-03T01:53:06;7.70;76.60
55634;DHT22;41504;53.162;6.788;2023-05-03T01:55:32;7.70;76.70
55634;DHT22;41504;53.162;6.788;2023-05-03T01:57:58;7.60;76.50
55634;DHT22;41504;53.162;6.788;2023-05-03T02:00:24;7.60;76.60
55634;DHT22;41504;53.162;6.788;2023-05-03T02:02:49;7.50;77.00
55634;DHT22;41504;53.162;6.788;2023-05-03T02:05:15;7.50;77.00
55634;DHT22;41504;53.162;6.788;2023-05-03T02:07:41;7.60;77.20
55634;DHT22;41504;53.162;6.788;2023-05-03T02:10:07;7.50;77.10
55634;DHT22;41504;53.162;6.788;2023-05-03T02:12:36;7.50;77.30
55634;DHT22;41504;53.162;6.788;2023-05-03T02:15:02;7.50;77.20
55634;DHT22;41504;53.162;6.788;2023-05-03T02:17:28;7.50;77.30
55634;DHT22;41504;53.162;6.788;2023-05-03T02:19:54;7.50;77.40
55634;DHT22;41504;53.162;6.788;2023-05-03T02:22:20;7.60;77.20
55634;DHT22;41504;53.162;6.788;2023-05-03T02:24:46;7.50;77.30
55634;DHT22;41504;53.162;6.788;2023-05-03T02:27:12;7.50;77.50
55634;DHT22;41504;53.162;6.788;2023-05-03T02:29:37;7.60;77.50
55634;DHT22;41504;53.162;6.788;2023-05-03T02:32:06;7.60;77.60
55634;DHT22;41504;53.162;6.788;2023-05-03T02:34:32;7.60;77.70
55634;DHT22;41504;53.162;6.788;2023-05-03T02:36:58;7.70;77.40
55634;DHT22;41504;53.162;6.788;2023-05-03T02:39:24;7.60;77.60
55634;DHT22;41504;53.162;6.788;2023-05-03T02:41:49;7.70;77.80
55634;DHT22;41504;53.162;6.788;2023-05-03T02:44:15;7.70;77.70
55634;DHT22;41504;53.162;6.788;2023-05-03T02:46:41;7.70;77.60
55634;DHT22;41504;53.162;6.788;2023-05-03T02:49:07;7.70;77.30
55634;DHT22;41504;53.162;6.788;2023-05-03T02:51:34;7.70;77.40
55634;DHT22;41504;53.162;6.788;2023-05-03T02:54:00;7.60;77.40
55634;DHT22;41504;53.162;6.788;2023-05-03T02:56:25;7.60;77.50
55634;DHT22;41504;53.162;6.788;2023-05-03T02:58:52;7.60;77.60
55634;DHT22;41504;53.162;6.788;2023-05-03T03:01:18;7.60;77.40
55634;DHT22;41504;53.162;6.788;2023-05-03T03:03:43;7.60;77.40
55634;DHT22;41504;53.162;6.788;2023-05-03T03:06:12;7.60;77.30
55634;DHT22;41504;53.162;6.788;2023-05-03T03:08:37;7.60;77.40
55634;DHT22;41504;53.162;6.788;2023-05-03T03:11:04;7.60;77.40
55634;DHT22;41504;53.162;6.788;2023-05-03T03:13:30;7.60;77.50
55634;DHT22;41504;53.162;6.788;2023-05-03T03:15:56;7.60;77.40
55634;DHT22;41504;53.162;6.788;2023-05-03T03:18:21;7.60;77.40
55634;DHT22;41504;53.162;6.788;2023-05-03T03:20:50;7.60;77.50
55634;DHT22;41504;53.162;6.788;2023-05-03T03:23:16;7.60;77.50
55634;DHT22;41504;53.162;6.788;2023-05-03T03:25:41;7.60;77.50
55634;DHT22;41504;53.162;6.788;2023-05-03T03:28:07;7.60;77.80
55634;DHT22;41504;53.162;6.788;2023-05-03T03:30:36;7.60;77.70
55634;DHT22;41504;53.162;6.788;2023-05-03T03:33:01;7.70;78.00
55634;DHT22;41504;53.162;6.788;2023-05-03T03:35:27;7.70;77.90
55634;DHT22;41504;53.162;6.788;2023-05-03T03:37:53;7.70;77.90
55634;DHT22;41504;53.162;6.788;2023-05-03T03:40:19;7.70;78.20
55634;DHT22;41504;53.162;6.788;2023-05-03T03:42:47;7.70;78.10
55634;DHT22;41504;53.162;6.788;2023-05-03T03:45:13;7.70;77.70
55634;DHT22;41504;53.162;6.788;2023-05-03T03:47:39;7.70;77.40
55634;DHT22;41504;53.162;6.788;2023-05-03T03:50:05;7.70;77.50
55634;DHT22;41504;53.162;6.788;2023-05-03T03:52:31;7.60;77.60
55634;DHT22;41504;53.162;6.788;2023-05-03T03:54:57;7.60;77.60
55634;DHT22;41504;53.162;6.788;2023-05-03T03:57:25;7.60;77.40
55634;DHT22;41504;53.162;6.788;2023-05-03T03:59:55;7.60;77.70
55634;DHT22;41504;53.162;6.788;2023-05-03T04:02:21;7.60;77.80
55634;DHT22;41504;53.162;6.788;2023-05-03T04:04:46;7.60;77.90
55634;DHT22;41504;53.162;6.788;2023-05-03T04:07:12;7.50;77.50
55634;DHT22;41504;53.162;6.788;2023-05-03T04:09:38;7.60;77.50
55634;DHT22;41504;53.162;6.788;2023-05-03T04:12:07;7.60;77.50
55634;DHT22;41504;53.162;6.788;2023-05-03T04:14:32;7.50;77.60
55634;DHT22;41504;53.162;6.788;2023-05-03T04:16:58;7.50;77.50
55634;DHT22;41504;53.162;6.788;2023-05-03T04:19:24;7.50;77.50
55634;DHT22;41504;53.162;6.788;2023-05-03T04:21:51;7.50;77.80
55634;DHT22;41504;53.162;6.788;2023-05-03T04:24:17;7.50;78.00
55634;DHT22;41504;53.162;6.788;2023-05-03T04:26:43;7.50;77.90
55634;DHT22;41504;53.162;6.788;2023-05-03T04:29:09;7.50;77.80
55634;DHT22;41504;53.162;6.788;2023-05-03T04:31:36;7.50;78.40
55634;DHT22;41504;53.162;6.788;2023-05-03T04:34:03;7.50;78.10
55634;DHT22;41504;53.162;6.788;2023-05-03T04:36:32;7.50;78.30
55634;DHT22;41504;53.162;6.788;2023-05-03T04:39:01;7.50;78.40
55634;DHT22;41504;53.162;6.788;2023-05-03T04:41:27;7.50;78.60
55634;DHT22;41504;53.162;6.788;2023-05-03T04:43:53;7.60;78.60
55634;DHT22;41504;53.162;6.788;2023-05-03T04:46:18;7.50;78.70
55634;DHT22;41504;53.162;6.788;2023-05-03T04:48:45;7.60;78.90
55634;DHT22;41504;53.162;6.788;2023-05-03T04:51:10;7.60;78.80
55634;DHT22;41504;53.162;6.788;2023-05-03T04:53:36;7.70;78.90
55634;DHT22;41504;53.162;6.788;2023-05-03T04:56:02;7.70;78.90
55634;DHT22;41504;53.162;6.788;2023-05-03T04:58:28;7.70;79.00
55634;DHT22;41504;53.162;6.788;2023-05-03T05:00:54;7.70;78.70
55634;DHT22;41504;53.162;6.788;2023-05-03T05:03:22;7.80;78.30
55634;DHT22;41504;53.162;6.788;2023-05-03T05:05:48;7.80;77.80
55634;DHT22;41504;53.162;6.788;2023-05-03T05:08:17;7.90;77.20
55634;DHT22;41504;53.162;6.788;2023-05-03T05:10:42;7.80;76.70
55634;DHT22;41504;53.162;6.788;2023-05-03T05:13:08;7.80;76.70
55634;DHT22;41504;53.162;6.788;2023-05-03T05:15:34;7.80;76.60
55634;DHT22;41504;53.162;6.788;2023-05-03T05:18:00;7.80;76.40
55634;DHT22;41504;53.162;6.788;2023-05-03T05:20:34;7.80;75.80
55634;DHT22;41504;53.162;6.788;2023-05-03T05:23:03;7.80;76.00
55634;DHT22;41504;53.162;6.788;2023-05-03T05:25:29;7.70;75.90
55634;DHT22;41504;53.162;6.788;2023-05-03T05:27:55;7.80;75.60
55634;DHT22;41504;53.162;6.788;2023-05-03T05:30:20;7.80;75.70
55634;DHT22;41504;53.162;6.788;2023-05-03T05:32:47;7.80;75.80
55634;DHT22;41504;53.162;6.788;2023-05-03T05:35:13;7.80;75.70
55634;DHT22;41504;53.162;6.788;2023-05-03T05:37:42;7.70;75.70
55634;DHT22;41504;53.162;6.788;2023-05-03T05:40:08;7.80;75.70
55634;DHT22;41504;53.162;6.788;2023-05-03T05:42:37;7.80;75.80
55634;DHT22;41504;53.162;6.788;2023-05-03T05:45:05;7.70;75.90
55634;DHT22;41504;53.162;6.788;2023-05-03T05:47:32;7.70;75.80
55634;DHT22;41504;53.162;6.788;2023-05-03T05:49:58;7.70;75.90
55634;DHT22;41504;53.162;6.788;2023-05-03T05:52:23;7.70;76.00
55634;DHT22;41504;53.162;6.788;2023-05-03T05:54:49;7.70;76.00
55634;DHT22;41504;53.162;6.788;2023-05-03T05:57:15;7.70;76.10
55634;DHT22;41504;53.162;6.788;2023-05-03T05:59:41;7.70;76.50
55634;DHT22;41504;53.162;6.788;2023-05-03T06:02:14;7.70;77.00
55634;DHT22;41504;53.162;6.788;2023-05-03T06:04:41;7.70;76.90
55634;DHT22;41504;53.162;6.788;2023-05-03T06:07:07;7.80;76.40
55634;DHT22;41504;53.162;6.788;2023-05-03T06:09:35;7.80;76.10
55634;DHT22;41504;53.162;6.788;2023-05-03T06:12:01;7.70;75.50
55634;DHT22;41504;53.162;6.788;2023-05-03T06:14:27;7.80;75.60
55634;DHT22;41504;53.162;6.788;2023-05-03T06:16:52;7.80;75.50
55634;DHT22;41504;53.162;6.788;2023-05-03T06:19:19;7.80;75.50
55634;DHT22;41504;53.162;6.788;2023-05-03T06:21:44;8.20;75.70
55634;DHT22;41504;53.162;6.788;2023-05-03T06:24:16;7.90;75.10
55634;DHT22;41504;53.162;6.788;2023-05-03T06:26:46;8.00;74.70
55634;DHT22;41504;53.162;6.788;2023-05-03T06:29:12;8.00;74.60
55634;DHT22;41504;53.162;6.788;2023-05-03T06:31:38;8.00;74.50
55634;DHT22;41504;53.162;6.788;2023-05-03T06:34:06;8.00;74.50
55634;DHT22;41504;53.162;6.788;2023-05-03T06:36:32;8.10;74.60
55634;DHT22;41504;53.162;6.788;2023-05-03T06:38:58;8.10;74.40
55634;DHT22;41504;53.162;6.788;2023-05-03T06:41:23;8.20;74.30
55634;DHT22;41504;53.162;6.788;2023-05-03T06:43:49;8.20;74.20
55634;DHT22;41504;53.162;6.788;2023-05-03T06:46:15;8.30;73.30
55634;DHT22;41504;53.162;6.788;2023-05-03T06:48:41;8.30;73.10
55634;DHT22;41504;53.162;6.788;2023-05-03T06:51:07;8.40;71.10
55634;DHT22;41504;53.162;6.788;2023-05-03T06:53:32;8.40;70.30
55634;DHT22;41504;53.162;6.788;2023-05-03T06:55:58;8.50;71.30
55634;DHT22;41504;53.162;6.788;2023-05-03T06:58:24;8.60;71.50
55634;DHT22;41504;53.162;6.788;2023-05-03T07:00:53;8.70;71.20
55634;DHT22;41504;53.162;6.788;2023-05-03T07:03:22;8.70;71.00
55634;DHT22;41504;53.162;6.788;2023-05-03T07:06:20;8.80;69.90
55634;DHT22;41504;53.162;6.788;2023-05-03T07:08:55;8.80;67.80
55634;DHT22;41504;53.162;6.788;2023-05-03T07:11:22;8.80;69.90
55634;DHT22;41504;53.162;6.788;2023-05-03T07:13:59;8.80;68.70
55634;DHT22;41504;53.162;6.788;2023-05-03T07:16:28;8.90;69.40
55634;DHT22;41504;53.162;6.788;2023-05-03T07:18:56;8.90;68.80
55634;DHT22;41504;53.162;6.788;2023-05-03T07:21:28;9.00;68.30
55634;DHT22;41504;53.162;6.788;2023-05-03T07:24:20;9.00;68.50
55634;DHT22;41504;53.162;6.788;2023-05-03T07:26:46;9.00;67.80
55634;DHT22;41504;53.162;6.788;2023-05-03T07:29:12;9.00;66.80
55634;DHT22;41504;53.162;6.788;2023-05-03T07:31:41;9.00;66.40
55634;DHT22;41504;53.162;6.788;2023-05-03T07:34:13;8.90;66.90
55634;DHT22;41504;53.162;6.788;2023-05-03T07:36:38;9.00;66.00
55634;DHT22;41504;53.162;6.788;2023-05-03T07:39:04;9.00;66.90
55634;DHT22;41504;53.162;6.788;2023-05-03T07:41:35;9.00;66.90
55634;DHT22;41504;53.162;6.788;2023-05-03T07:44:04;9.10;67.40
55634;DHT22;41504;53.162;6.788;2023-05-03T07:46:30;9.20;67.40
55634;DHT22;41504;53.162;6.788;2023-05-03T07:49:03;9.30;66.90
55634;DHT22;41504;53.162;6.788;2023-05-03T07:51:36;9.40;66.90
55634;DHT22;41504;53.162;6.788;2023-05-03T07:54:02;9.50;66.80
55634;DHT22;41504;53.162;6.788;2023-05-03T07:56:28;9.60;66.70
55634;DHT22;41504;53.162;6.788;2023-05-03T07:58:54;9.70;66.60
55634;DHT22;41504;53.162;6.788;2023-05-03T08:01:20;9.80;66.30
55634;DHT22;41504;53.162;6.788;2023-05-03T08:03:46;9.80;65.20
55634;DHT22;41504;53.162;6.788;2023-05-03T08:06:15;9.80;65.80
55634;DHT22;41504;53.162;6.788;2023-05-03T08:08:41;9.80;65.90
55634;DHT22;41504;53.162;6.788;2023-05-03T08:11:07;9.80;65.30
55634;DHT22;41504;53.162;6.788;2023-05-03T08:13:36;9.80;64.10
55634;DHT22;41504;53.162;6.788;2023-05-03T08:16:06;9.70;65.10
55634;DHT22;41504;53.162;6.788;2023-05-03T08:18:31;9.80;65.60
55634;DHT22;41504;53.162;6.788;2023-05-03T08:20:57;9.80;64.80
55634;DHT22;41504;53.162;6.788;2023-05-03T08:23:26;9.90;64.60
55634;DHT22;41504;53.162;6.788;2023-05-03T08:25:52;9.90;62.90
55634;DHT22;41504;53.162;6.788;2023-05-03T08:28:18;9.80;64.30
55634;DHT22;41504;53.162;6.788;2023-05-03T08:30:44;9.90;64.70
55634;DHT22;41504;53.162;6.788;2023-05-03T08:33:09;10.00;64.80
55634;DHT22;41504;53.162;6.788;2023-05-03T08:35:35;10.00;64.10
55634;DHT22;41504;53.162;6.788;2023-05-03T08:38:01;10.10;64.10
55634;DHT22;41504;53.162;6.788;2023-05-03T08:40:27;10.10;64.50
55634;DHT22;41504;53.162;6.788;2023-05-03T08:42:55;10.20;64.50
55634;DHT22;41504;53.162;6.788;2023-05-03T08:45:24;10.20;64.30
55634;DHT22;41504;53.162;6.788;2023-05-03T08:47:53;10.20;64.00
55634;DHT22;41504;53.162;6.788;2023-05-03T08:50:20;10.20;64.30
55634;DHT22;41504;53.162;6.788;2023-05-03T08:52:46;10.20;64.10
55634;DHT22;41504;53.162;6.788;2023-05-03T08:55:12;10.20;64.40
55634;DHT22;41504;53.162;6.788;2023-05-03T08:57:38;10.30;64.40
55634;DHT22;41504;53.162;6.788;2023-05-03T09:00:04;10.40;64.30
55634;DHT22;41504;53.162;6.788;2023-05-03T09:02:35;10.40;64.00
55634;DHT22;41504;53.162;6.788;2023-05-03T09:10:25;10.30;63.90
55634;DHT22;41504;53.162;6.788;2023-05-03T09:13:00;10.40;64.20
55634;DHT22;41504;53.162;6.788;2023-05-03T09:15:28;10.50;64.40
55634;DHT22;41504;53.162;6.788;2023-05-03T09:18:16;10.50;63.90
55634;DHT22;41504;53.162;6.788;2023-05-03T09:20:43;10.70;63.90
55634;DHT22;41504;53.162;6.788;2023-05-03T09:23:16;10.70;64.00
55634;DHT22;41504;53.162;6.788;2023-05-03T09:25:48;10.80;63.70
55634;DHT22;41504;53.162;6.788;2023-05-03T09:28:15;10.90;63.40
55634;DHT22;41504;53.162;6.788;2023-05-03T09:30:42;10.90;63.30
55634;DHT22;41504;53.162;6.788;2023-05-03T09:33:08;10.90;63.30
55634;DHT22;41504;53.162;6.788;2023-05-03T09:35:34;10.90;63.10
55634;DHT22;41504;53.162;6.788;2023-05-03T09:38:08;11.00;63.10
55634;DHT22;41504;53.162;6.788;2023-05-03T09:40:47;11.00;61.90
55634;DHT22;41504;53.162;6.788;2023-05-03T09:43:13;10.90;62.40
55634;DHT22;41504;53.162;6.788;2023-05-03T09:45:40;10.90;62.90
55634;DHT22;41504;53.162;6.788;2023-05-03T09:48:06;11.00;62.80
55634;DHT22;41504;53.162;6.788;2023-05-03T09:50:34;11.00;62.60
55634;DHT22;41504;53.162;6.788;2023-05-03T09:53:06;11.10;62.50
55634;DHT22;41504;53.162;6.788;2023-05-03T09:55:36;11.20;62.60
55634;DHT22;41504;53.162;6.788;2023-05-03T09:58:06;11.30;62.60
55634;DHT22;41504;53.162;6.788;2023-05-03T10:00:37;11.40;62.30
55634;DHT22;41504;53.162;6.788;2023-05-03T10:03:33;11.40;62.30
55634;DHT22;41504;53.162;6.788;2023-05-03T10:06:03;11.50;62.10
55634;DHT22;41504;53.162;6.788;2023-05-03T10:08:40;11.40;60.90
55634;DHT22;41504;53.162;6.788;2023-05-03T10:11:08;11.30;60.40
55634;DHT22;41504;53.162;6.788;2023-05-03T10:13:36;11.10;61.30
55634;DHT22;41504;53.162;6.788;2023-05-03T10:16:07;11.20;61.70
55634;DHT22;41504;53.162;6.788;2023-05-03T10:18:39;11.30;61.70
55634;DHT22;41504;53.162;6.788;2023-05-03T10:21:15;11.50;61.40
55634;DHT22;41504;53.162;6.788;2023-05-03T10:26:38;11.60;61.30
55634;DHT22;41504;53.162;6.788;2023-05-03T10:29:04;11.60;60.00
55634;DHT22;41504;53.162;6.788;2023-05-03T10:31:44;11.60;60.60
55634;DHT22;41504;53.162;6.788;2023-05-03T10:34:22;11.60;59.40
55634;DHT22;41504;53.162;6.788;2023-05-03T10:36:49;11.70;60.60
55634;DHT22;41504;53.162;6.788;2023-05-03T10:39:17;11.80;60.90
55634;DHT22;41504;53.162;6.788;2023-05-03T10:41:43;11.90;60.90
55634;DHT22;41504;53.162;6.788;2023-05-03T10:44:26;12.00;60.80
55634;DHT22;41504;53.162;6.788;2023-05-03T10:46:53;12.10;61.30
55634;DHT22;41504;53.162;6.788;2023-05-03T10:49:21;12.20;60.50
55634;DHT22;41504;53.162;6.788;2023-05-03T10:51:47;12.20;60.20
55634;DHT22;41504;53.162;6.788;2023-05-03T10:54:13;12.00;58.00
55634;DHT22;41504;53.162;6.788;2023-05-03T10:56:49;11.70;58.00
55634;DHT22;41504;53.162;6.788;2023-05-03T10:59:16;11.40;59.30
55634;DHT22;41504;53.162;6.788;2023-05-03T11:01:43;11.50;60.20
55634;DHT22;41504;53.162;6.788;2023-05-03T11:04:57;11.30;59.80
55634;DHT22;41504;53.162;6.788;2023-05-03T11:07:19;11.30;60.60
55634;DHT22;41504;53.162;6.788;2023-05-03T11:09:48;11.40;60.80
55634;DHT22;41504;53.162;6.788;2023-05-03T11:12:14;11.50;59.80
55634;DHT22;41504;53.162;6.788;2023-05-03T11:14:41;11.50;60.50
55634;DHT22;41504;53.162;6.788;2023-05-03T11:17:08;11.60;60.10
55634;DHT22;41504;53.162;6.788;2023-05-03T11:19:36;11.70;60.10
55634;DHT22;41504;53.162;6.788;2023-05-03T11:22:07;11.80;60.30
55634;DHT22;41504;53.162;6.788;2023-05-03T11:24:33;11.80;60.20
55634;DHT22;41504;53.162;6.788;2023-05-03T11:27:02;12.00;59.80
55634;DHT22;41504;53.162;6.788;2023-05-03T11:29:27;12.10;60.00
55634;DHT22;41504;53.162;6.788;2023-05-03T11:31:54;12.20;59.50
55634;DHT22;41504;53.162;6.788;2023-05-03T11:34:20;12.30;58.90
55634;DHT22;41504;53.162;6.788;2023-05-03T11:36:46;12.40;58.70
55634;DHT22;41504;53.162;6.788;2023-05-03T11:39:14;12.70;58.50
55634;DHT22;41504;53.162;6.788;2023-05-03T11:41:40;12.90;58.20
55634;DHT22;41504;53.162;6.788;2023-05-03T11:44:08;13.00;56.00
55634;DHT22;41504;53.162;6.788;2023-05-03T11:46:36;13.00;57.20
55634;DHT22;41504;53.162;6.788;2023-05-03T11:49:03;13.10;57.10
55634;DHT22;41504;53.162;6.788;2023-05-03T11:51:31;13.20;57.80
55634;DHT22;41504;53.162;6.788;2023-05-03T11:53:59;13.20;56.10
55634;DHT22;41504;53.162;6.788;2023-05-03T11:56:29;13.00;56.90
55634;DHT22;41504;53.162;6.788;2023-05-03T11:58:57;12.90;57.00
55634;DHT22;41504;53.162;6.788;2023-05-03T12:01:26;12.80;56.20
55634;DHT22;41504;53.162;6.788;2023-05-03T12:04:02;12.70;56.80
55634;DHT22;41504;53.162;6.788;2023-05-03T12:06:30;12.70;57.40
55634;DHT22;41504;53.162;6.788;2023-05-03T12:08:58;12.70;57.50
55634;DHT22;41504;53.162;6.788;2023-05-03T12:11:24;12.90;57.10
55634;DHT22;41504;53.162;6.788;2023-05-03T12:14:00;12.90;56.00
55634;DHT22;41504;53.162;6.788;2023-05-03T12:16:27;12.80;57.00
55634;DHT22;41504;53.162;6.788;2023-05-03T12:18:57;13.00;57.00
55634;DHT22;41504;53.162;6.788;2023-05-03T12:21:44;13.20;56.70
55634;DHT22;41504;53.162;6.788;2023-05-03T12:24:13;13.40;56.50
55634;DHT22;41504;53.162;6.788;2023-05-03T12:26:49;13.70;56.00
55634;DHT22;41504;53.162;6.788;2023-05-03T12:29:15;13.80;55.90
55634;DHT22;41504;53.162;6.788;2023-05-03T12:31:41;13.90;55.50
55634;DHT22;41504;53.162;6.788;2023-05-03T12:34:07;14.00;55.10
55634;DHT22;41504;53.162;6.788;2023-05-03T12:36:34;13.90;53.80
55634;DHT22;41504;53.162;6.788;2023-05-03T12:39:00;13.70;55.10
55634;DHT22;41504;53.162;6.788;2023-05-03T12:41:26;13.70;55.60
55634;DHT22;41504;53.162;6.788;2023-05-03T12:43:54;13.80;55.70
55634;DHT22;41504;53.162;6.788;2023-05-03T12:46:24;13.80;55.80
55634;DHT22;41504;53.162;6.788;2023-05-03T12:48:53;13.80;55.30
55634;DHT22;41504;53.162;6.788;2023-05-03T12:51:19;13.60;55.00
55634;DHT22;41504;53.162;6.788;2023-05-03T12:53:46;13.40;56.10
55634;DHT22;41504;53.162;6.788;2023-05-03T12:56:12;13.40;56.20
55634;DHT22;41504;53.162;6.788;2023-05-03T12:58:38;13.50;56.30
55634;DHT22;41504;53.162;6.788;2023-05-03T13:01:06;13.70;56.40
55634;DHT22;41504;53.162;6.788;2023-05-03T13:03:31;13.90;55.70
55634;DHT22;41504;53.162;6.788;2023-05-03T13:05:57;14.20;55.70
55634;DHT22;41504;53.162;6.788;2023-05-03T13:08:23;14.30;55.00
55634;DHT22;41504;53.162;6.788;2023-05-03T13:10:49;14.30;54.50
55634;DHT22;41504;53.162;6.788;2023-05-03T13:13:15;14.10;54.00
55634;DHT22;41504;53.162;6.788;2023-05-03T13:15:41;14.00;55.00
55634;DHT22;41504;53.162;6.788;2023-05-03T13:18:08;14.10;55.30
55634;DHT22;41504;53.162;6.788;2023-05-03T13:20:35;14.30;54.10
55634;DHT22;41504;53.162;6.788;2023-05-03T13:23:01;14.20;54.40
55634;DHT22;41504;53.162;6.788;2023-05-03T13:25:28;14.40;54.30
55634;DHT22;41504;53.162;6.788;2023-05-03T13:27:54;14.40;54.20
55634;DHT22;41504;53.162;6.788;2023-05-03T13:30:20;14.50;54.70
55634;DHT22;41504;53.162;6.788;2023-05-03T13:32:48;14.80;54.20
55634;DHT22;41504;53.162;6.788;2023-05-03T13:35:15;15.00;53.90
55634;DHT22;41504;53.162;6.788;2023-05-03T13:37:41;15.20;53.60
55634;DHT22;41504;53.162;6.788;2023-05-03T13:40:07;15.40;53.50
55634;DHT22;41504;53.162;6.788;2023-05-03T13:42:34;15.50;53.50
55634;DHT22;41504;53.162;6.788;2023-05-03T13:45:00;15.50;52.50
55634;DHT22;41504;53.162;6.788;2023-05-03T13:47:25;15.50;52.50
55634;DHT22;41504;53.162;6.788;2023-05-03T13:49:55;15.50;52.60
55634;DHT22;41504;53.162;6.788;2023-05-03T13:52:22;15.60;52.50
55634;DHT22;41504;53.162;6.788;2023-05-03T13:54:48;15.50;52.00
55634;DHT22;41504;53.162;6.788;2023-05-03T13:57:14;15.50;52.70
55634;DHT22;41504;53.162;6.788;2023-05-03T13:59:39;15.60;52.60
55634;DHT22;41504;53.162;6.788;2023-05-03T14:02:06;15.60;52.30
55634;DHT22;41504;53.162;6.788;2023-05-03T14:04:32;15.70;52.50
55634;DHT22;41504;53.162;6.788;2023-05-03T14:07:00;15.80;52.20
55634;DHT22;41504;53.162;6.788;2023-05-03T14:09:28;16.00;52.10
55634;DHT22;41504;53.162;6.788;2023-05-03T14:11:54;16.10;51.60
55634;DHT22;41504;53.162;6.788;2023-05-03T14:14:20;16.20;51.40
55634;DHT22;41504;53.162;6.788;2023-05-03T14:16:46;16.20;51.20
55634;DHT22;41504;53.162;6.788;2023-05-03T14:19:12;16.00;51.30
55634;DHT22;41504;53.162;6.788;2023-05-03T14:21:40;15.60;50.90
55634;DHT22;41504;53.162;6.788;2023-05-03T14:24:07;15.30;52.30
55634;DHT22;41504;53.162;6.788;2023-05-03T14:26:33;15.40;52.80
55634;DHT22;41504;53.162;6.788;2023-05-03T14:28:59;15.70;52.60
55634;DHT22;41504;53.162;6.788;2023-05-03T14:31:25;15.70;52.20
55634;DHT22;41504;53.162;6.788;2023-05-03T14:33:51;15.70;52.20
55634;DHT22;41504;53.162;6.788;2023-05-03T14:36:17;15.60;51.80
55634;DHT22;41504;53.162;6.788;2023-05-03T14:38:43;15.40;52.20
55634;DHT22;41504;53.162;6.788;2023-05-03T14:41:09;15.40;52.60
55634;DHT22;41504;53.162;6.788;2023-05-03T14:43:36;15.50;52.20
55634;DHT22;41504;53.162;6.788;2023-05-03T14:46:01;15.50;52.00
55634;DHT22;41504;53.162;6.788;2023-05-03T14:48:27;15.40;51.80
55634;DHT22;41504;53.162;6.788;2023-05-03T14:50:53;15.30;52.70
55634;DHT22;41504;53.162;6.788;2023-05-03T14:53:19;15.40;52.90
55634;DHT22;41504;53.162;6.788;2023-05-03T14:55:45;15.60;52.40
55634;DHT22;41504;53.162;6.788;2023-05-03T14:58:11;15.70;52.10
55634;DHT22;41504;53.162;6.788;2023-05-03T15:00:41;15.60;51.90
55634;DHT22;41504;53.162;6.788;2023-05-03T15:03:07;15.50;52.00
55634;DHT22;41504;53.162;6.788;2023-05-03T15:05:47;15.30;51.90
55634;DHT22;41504;53.162;6.788;2023-05-03T15:08:15;15.20;52.60
55634;DHT22;41504;53.162;6.788;2023-05-03T15:10:42;15.30;52.70
55634;DHT22;41504;53.162;6.788;2023-05-03T15:13:09;15.60;52.40
55634;DHT22;41504;53.162;6.788;2023-05-03T15:15:37;15.70;52.30
55634;DHT22;41504;53.162;6.788;2023-05-03T15:18:03;15.80;52.10
55634;DHT22;41504;53.162;6.788;2023-05-03T15:20:28;16.00;52.10
55634;DHT22;41504;53.162;6.788;2023-05-03T15:22:54;16.10;51.70
55634;DHT22;41504;53.162;6.788;2023-05-03T15:25:20;16.30;51.40
55634;DHT22;41504;53.162;6.788;2023-05-03T15:27:46;16.30;50.90
55634;DHT22;41504;53.162;6.788;2023-05-03T15:30:12;16.30;50.70
55634;DHT22;41504;53.162;6.788;2023-05-03T15:32:39;16.20;50.90
55634;DHT22;41504;53.162;6.788;2023-05-03T15:35:05;16.20;50.90
55634;DHT22;41504;53.162;6.788;2023-05-03T15:37:35;16.30;50.60
55634;DHT22;41504;53.162;6.788;2023-05-03T15:40:07;16.20;50.00
55634;DHT22;41504;53.162;6.788;2023-05-03T15:42:42;16.00;51.50
55634;DHT22;41504;53.162;6.788;2023-05-03T15:45:08;16.00;51.50
55634;DHT22;41504;53.162;6.788;2023-05-03T15:47:35;16.10;51.10
55634;DHT22;41504;53.162;6.788;2023-05-03T15:50:01;16.10;51.00
55634;DHT22;41504;53.162;6.788;2023-05-03T15:52:27;16.20;51.30
55634;DHT22;41504;53.162;6.788;2023-05-03T15:54:52;16.20;50.90
55634;DHT22;41504;53.162;6.788;2023-05-03T15:57:19;15.90;50.50
55634;DHT22;41504;53.162;6.788;2023-05-03T15:59:44;15.70;51.00
55634;DHT22;41504;53.162;6.788;2023-05-03T16:02:10;15.60;51.50
55634;DHT22;41504;53.162;6.788;2023-05-03T16:04:36;15.40;51.70